Time;durP1;ratioP1;P1;durP2;ratioP2;P2;SDS_P1;SDS_P2;PMS_P1;PMS_P2;Temp;Humidity;BMP_temperature;BMP_pressure;BME280_temperature;BME280_humidity;BME280_pressure;Samples;Min_cycle;Max_cycle;Signal;HPM_P1;HPM_P2
2022/11/16 00:00:17;;;;;;;7.80;6.35;;;10.80;99.90;;;;;;5052144;28;20045;-60
2022/11/16 00:02:43;;;;;;;7.72;7.10;;;10.80;99.90;;;;;;5030369;28;20037;-60
2022/11/16 00:05:09;;;;;;;8.20;7.40;;;10.90;99.90;;;;;;5048114;28;20049;-61
2022/11/16 00:07:34;;;;;;;8.48;7.05;;;10.80;99.90;;;;;;5045221;28;20119;-60
2022/11/16 00:10:00;;;;;;;7.65;7.05;;;10.80;99.90;;;;;;5030018;28;20144;-60
2022/11/16 00:12:26;;;;;;;8.25;7.43;;;10.90;99.90;;;;;;5045034;28;20447;-61
2022/11/16 00:14:51;;;;;;;8.23;7.43;;;10.90;99.90;;;;;;5047279;28;20136;-61
2022/11/16 00:17:17;;;;;;;7.88;7.07;;;10.90;99.90;;;;;;5055651;28;20406;-59
2022/11/16 00:19:42;;;;;;;9.05;7.80;;;10.90;99.90;;;;;;5050352;28;20063;-59
2022/11/16 00:22:08;;;;;;;8.35;7.55;;;10.90;99.90;;;;;;5033156;28;20040;-61
2022/11/16 00:24:34;;;;;;;7.50;6.70;;;10.90;99.90;;;;;;5044231;28;20037;-61
2022/11/16 00:26:59;;;;;;;8.98;8.00;;;10.90;99.90;;;;;;5046455;28;20051;-60
2022/11/16 00:29:26;;;;;;;9.57;8.77;;;10.90;99.90;;;;;;5052035;28;20120;-61
2022/11/16 00:31:53;;;;;;;9.10;7.88;;;10.90;99.90;;;;;;5057807;28;20052;-60
2022/11/16 00:34:20;;;;;;;9.60;8.52;;;10.90;99.90;;;;;;5056662;28;20409;-60
2022/11/16 00:36:46;;;;;;;9.40;8.40;;;10.90;99.90;;;;;;5049192;28;20052;-58
2022/11/16 00:39:13;;;;;;;11.00;8.20;;;10.90;99.90;;;;;;5052234;28;20090;-60
2022/11/16 00:41:39;;;;;;;8.60;7.70;;;10.90;99.90;;;;;;5038548;28;20099;-61
2022/11/16 00:44:05;;;;;;;8.43;7.65;;;11.00;99.90;;;;;;5052669;28;20303;-61
2022/11/16 00:46:31;;;;;;;8.27;7.57;;;10.90;99.90;;;;;;5054869;28;20059;-61
2022/11/16 00:48:57;;;;;;;9.57;8.65;;;11.00;99.90;;;;;;5054184;28;20037;-61
2022/11/16 00:51:22;;;;;;;8.73;7.82;;;11.00;99.90;;;;;;5053275;28;20045;-60
2022/11/16 00:53:48;;;;;;;8.85;7.95;;;11.00;99.90;;;;;;5050263;28;20049;-60
2022/11/16 00:56:13;;;;;;;9.52;8.73;;;10.90;99.90;;;;;;5052054;28;20033;-61
2022/11/16 00:58:39;;;;;;;9.52;8.52;;;11.00;99.90;;;;;;5036938;28;20441;-61
2022/11/16 01:01:07;;;;;;;10.02;9.02;;;11.00;99.90;;;;;;5059173;28;20049;-60
2022/11/16 01:03:34;;;;;;;8.77;7.97;;;11.00;99.90;;;;;;5054047;28;20433;-60
2022/11/16 01:06:05;;;;;;;9.33;8.43;;;10.90;99.90;;;;;;5065082;28;20484;-60
2022/11/16 01:08:31;;;;;;;9.00;8.20;;;11.00;99.90;;;;;;5037849;28;20106;-61
2022/11/16 01:13:41;;;;;;;9.55;8.55;;;11.00;99.90;;;;;;5049504;28;20090;-61
2022/11/16 01:16:07;;;;;;;9.63;8.27;;;11.00;99.90;;;;;;5052391;28;20077;-62
2022/11/16 01:18:33;;;;;;;8.98;8.13;;;11.00;99.90;;;;;;5052140;28;20035;-60
2022/11/16 01:20:58;;;;;;;12.48;9.10;;;11.00;99.90;;;;;;5052345;28;20068;-60
2022/11/16 01:23:24;;;;;;;9.13;8.23;;;11.00;99.90;;;;;;5057065;28;20041;-61
2022/11/16 01:25:57;;;;;;;9.05;8.15;;;11.00;99.90;;;;;;5052818;28;20033;-61
2022/11/16 01:28:23;;;;;;;8.90;8.00;;;11.00;99.90;;;;;;5054180;28;20037;-61
2022/11/16 01:30:48;;;;;;;9.95;8.70;;;11.00;99.90;;;;;;5049989;28;20044;-61
2022/11/16 01:33:14;;;;;;;9.32;8.23;;;11.00;99.90;;;;;;5050683;28;20044;-61
2022/11/16 01:35:42;;;;;;;9.23;8.27;;;11.00;99.90;;;;;;5048290;28;20041;-59
2022/11/16 01:38:08;;;;;;;9.38;8.25;;;11.00;99.90;;;;;;5052140;28;20370;-61
2022/11/16 01:40:35;;;;;;;9.82;8.50;;;11.00;99.90;;;;;;5052533;28;20571;-59
2022/11/16 01:43:00;;;;;;;8.50;7.70;;;11.00;99.90;;;;;;5056516;28;21438;-60
2022/11/16 01:45:42;;;;;;;10.55;8.32;;;11.00;99.90;;;;;;5060579;28;20043;-61
2022/11/16 01:48:10;;;;;;;11.90;8.77;;;11.00;99.90;;;;;;5049002;28;20516;-61
2022/11/16 01:50:37;;;;;;;8.65;7.85;;;11.00;99.90;;;;;;5050402;28;20045;-61
2022/11/16 01:53:06;;;;;;;8.95;8.05;;;11.00;99.90;;;;;;5052170;28;20802;-61
2022/11/16 01:55:34;;;;;;;11.00;8.52;;;11.00;99.90;;;;;;5048956;28;20036;-61
2022/11/16 01:58:01;;;;;;;8.95;8.10;;;11.00;99.90;;;;;;5039884;28;20044;-61
2022/11/16 02:00:26;;;;;;;8.63;7.57;;;11.00;99.90;;;;;;5046529;28;21335;-61
2022/11/16 02:02:52;;;;;;;8.88;7.97;;;11.00;99.90;;;;;;5051409;28;20131;-61
2022/11/16 02:05:21;;;;;;;7.68;6.90;;;11.00;99.90;;;;;;5047053;28;20052;-61
2022/11/16 02:11:31;;;;;;;8.07;7.28;;;10.90;99.90;;;;;;5050688;28;20052;-61
2022/11/16 02:14:21;;;;;;;7.85;7.13;;;11.00;99.90;;;;;;5055561;28;20040;-61
2022/11/16 02:17:07;;;;;;;8.55;7.78;;;11.00;99.90;;;;;;5048161;28;20486;-61
2022/11/16 02:19:51;;;;;;;8.30;7.15;;;11.00;99.90;;;;;;5047848;28;20524;-62
2022/11/16 02:22:52;;;;;;;7.47;6.78;;;11.00;99.90;;;;;;5051209;28;20076;-61
2022/11/16 02:25:52;;;;;;;8.27;7.07;;;11.00;99.90;;;;;;5044045;28;20167;-62
2022/11/16 02:28:51;;;;;;;7.93;6.63;;;11.00;99.90;;;;;;5062224;28;20048;-61
2022/11/16 02:31:25;;;;;;;8.32;7.32;;;11.00;99.90;;;;;;5053244;28;20041;-62
2022/11/16 02:33:52;;;;;;;8.93;7.25;;;11.00;99.90;;;;;;5052981;28;20036;-62
2022/11/16 02:36:22;;;;;;;7.78;7.07;;;11.00;99.90;;;;;;5048687;28;20049;-62
2022/11/16 02:39:04;;;;;;;7.45;6.75;;;11.00;99.90;;;;;;5045741;28;20045;-62
2022/11/16 02:41:34;;;;;;;8.48;7.32;;;10.90;99.90;;;;;;5048729;28;20490;-62
2022/11/16 02:44:05;;;;;;;8.68;6.85;;;11.00;99.90;;;;;;5053399;28;20043;-62
2022/11/16 02:46:37;;;;;;;8.07;6.75;;;10.90;99.90;;;;;;5053365;28;20205;-62
2022/11/16 02:49:08;;;;;;;12.10;7.65;;;10.90;99.90;;;;;;5045199;28;20069;-62
2022/11/16 02:51:35;;;;;;;8.60;7.70;;;10.90;99.90;;;;;;5045241;28;20565;-61
2022/11/16 02:54:03;;;;;;;8.23;7.45;;;10.90;99.90;;;;;;5047048;28;20516;-62
2022/11/16 02:56:39;;;;;;;9.70;7.70;;;10.90;99.90;;;;;;5050683;28;20041;-61
2022/11/16 02:59:05;;;;;;;8.65;7.07;;;10.90;99.90;;;;;;5057379;28;20111;-61
2022/11/16 03:01:35;;;;;;;8.95;7.65;;;10.90;99.90;;;;;;5054409;28;20087;-62
2022/11/16 03:04:08;;;;;;;8.27;7.47;;;10.90;99.90;;;;;;5042480;28;20041;-61
2022/11/16 03:06:38;;;;;;;9.63;7.75;;;10.90;99.90;;;;;;5060043;28;20037;-61
2022/11/16 03:09:08;;;;;;;10.07;8.10;;;10.90;99.90;;;;;;5059458;28;20507;-62
2022/11/16 03:14:23;;;;;;;;;;;10.80;99.90;;;;;;5060506;28;20351;-62
2022/11/16 03:16:59;;;;;;;14.35;8.75;;;10.80;99.90;;;;;;5041753;28;19924;-62
2022/11/16 03:19:33;;;;;;;13.43;9.25;;;10.80;99.90;;;;;;5058294;28;20123;-62
2022/11/16 03:22:05;;;;;;;9.98;8.80;;;10.80;99.90;;;;;;5054869;28;20510;-62
2022/11/16 03:24:31;;;;;;;11.10;9.35;;;10.80;99.90;;;;;;5051267;28;20041;-62
2022/11/16 03:27:11;;;;;;;9.90;8.90;;;10.80;99.90;;;;;;5054664;28;20379;-61
2022/11/16 03:29:43;;;;;;;13.35;9.57;;;10.80;99.90;;;;;;5047231;28;20105;-62
2022/11/16 03:32:26;;;;;;;13.88;9.98;;;10.80;99.90;;;;;;5048122;28;20155;-62
2022/11/16 03:35:18;;;;;;;12.05;10.52;;;10.80;99.90;;;;;;5047606;28;20044;-62
2022/11/16 03:37:48;;;;;;;11.77;10.25;;;10.80;99.90;;;;;;5050157;28;20063;-61
2022/11/16 03:40:15;;;;;;;13.27;9.75;;;10.80;99.90;;;;;;5050743;28;20076;-60
2022/11/16 03:42:43;;;;;;;11.20;10.10;;;10.70;99.90;;;;;;5039965;28;20499;-60
2022/11/16 03:45:11;;;;;;;13.93;11.30;;;10.70;99.90;;;;;;5050131;28;20052;-61
2022/11/16 03:47:36;;;;;;;13.85;10.73;;;10.70;99.90;;;;;;5053031;28;20045;-59
2022/11/16 03:50:02;;;;;;;11.73;10.52;;;10.70;99.90;;;;;;5058560;28;20405;-60
2022/11/16 03:52:28;;;;;;;11.52;10.35;;;10.70;99.90;;;;;;5034428;28;20618;-60
2022/11/16 03:54:54;;;;;;;12.00;10.80;;;10.70;99.90;;;;;;5053300;28;20067;-60
2022/11/16 03:57:19;;;;;;;11.18;10.00;;;10.70;99.90;;;;;;5052845;28;20037;-60
2022/11/16 03:59:45;;;;;;;12.45;11.15;;;10.70;99.90;;;;;;5055500;28;20087;-60
2022/11/16 04:02:11;;;;;;;13.02;10.23;;;10.70;99.90;;;;;;5057080;28;20037;-61
2022/11/16 04:28:12;;;;;;;10.43;9.40;;;10.60;99.90;;;;;;5054956;28;20048;-61
2022/11/16 04:29:19;;;;;;;11.07;9.98;;;10.60;99.90;;;;;;5047125;28;20163;-61
2022/11/16 04:40:02;;;;;;;11.98;10.77;;;10.60;99.90;;;;;;5053270;28;20053;-61
2022/11/16 04:42:27;;;;;;;11.45;10.20;;;10.60;99.90;;;;;;5050219;28;20098;-61
2022/11/16 04:47:37;;;;;;;12.65;11.45;;;10.60;99.90;;;;;;5048620;28;20659;-61
2022/11/16 04:50:03;;;;;;;12.38;11.20;;;10.60;99.90;;;;;;5050241;28;20090;-61
2022/11/16 04:52:29;;;;;;;12.48;11.20;;;10.60;99.90;;;;;;5044009;28;20040;-60
2022/11/16 04:54:55;;;;;;;13.30;11.90;;;10.60;99.90;;;;;;5045363;28;20109;-60
2022/11/16 04:57:20;;;;;;;15.50;12.50;;;10.50;99.90;;;;;;5051512;28;20040;-59
2022/11/16 04:59:46;;;;;;;13.10;11.88;;;10.60;99.90;;;;;;5049136;28;20144;-61
2022/11/16 05:02:12;;;;;;;13.70;12.35;;;10.60;99.90;;;;;;5054957;28;20124;-61
2022/11/16 05:04:39;;;;;;;14.23;12.73;;;10.60;99.90;;;;;;5063030;28;20045;-61
2022/11/16 05:07:10;;;;;;;15.40;13.23;;;10.60;99.90;;;;;;5060728;28;20047;-60
2022/11/16 05:09:41;;;;;;;13.93;12.40;;;10.60;99.90;;;;;;5061386;28;20033;-60
2022/11/16 05:12:17;;;;;;;14.13;12.65;;;10.50;99.90;;;;;;5059387;28;20090;-61
2022/11/16 05:14:43;;;;;;;14.40;12.90;;;10.50;99.90;;;;;;5055749;28;20494;-61
2022/11/16 05:17:09;;;;;;;15.77;14.18;;;10.60;99.90;;;;;;5055745;28;20543;-60
2022/11/16 05:22:19;;;;;;;16.30;14.10;;;10.60;99.90;;;;;;5060664;28;20509;-60
2022/11/16 05:24:45;;;;;;;16.08;14.38;;;10.60;99.90;;;;;;5056759;28;20098;-61
2022/11/16 05:27:14;;;;;;;15.07;13.48;;;10.60;99.90;;;;;;5050898;28;20033;-61
2022/11/16 05:29:40;;;;;;;15.30;13.70;;;10.60;99.90;;;;;;5060333;28;20028;-61
2022/11/16 05:32:07;;;;;;;16.15;14.52;;;10.60;99.90;;;;;;5057937;28;20056;-60
2022/11/16 05:34:33;;;;;;;16.63;14.88;;;10.50;99.90;;;;;;5059182;28;20342;-61
2022/11/16 05:36:59;;;;;;;15.95;14.43;;;10.50;99.90;;;;;;5057768;28;20056;-60
2022/11/16 05:39:25;;;;;;;14.77;13.18;;;10.50;99.90;;;;;;5063937;28;20044;-60
2022/11/16 05:41:51;;;;;;;15.95;14.32;;;10.50;99.90;;;;;;5057118;28;20042;-61
2022/11/16 05:44:17;;;;;;;16.42;14.70;;;10.50;99.90;;;;;;5058591;28;20037;-62
2022/11/16 05:46:46;;;;;;;18.10;15.68;;;10.50;99.90;;;;;;5050893;28;20040;-61
2022/11/16 05:49:12;;;;;;;17.38;15.48;;;10.50;99.90;;;;;;5061071;28;20040;-61
2022/11/16 05:51:43;;;;;;;17.50;14.80;;;10.50;99.90;;;;;;5057181;28;20039;-60
2022/11/16 05:54:18;;;;;;;17.65;15.70;;;10.50;99.90;;;;;;5053573;28;20044;-60
2022/11/16 05:56:47;;;;;;;17.55;15.82;;;10.50;99.90;;;;;;5054108;28;20135;-60
2022/11/16 05:59:17;;;;;;;16.38;14.77;;;10.50;99.90;;;;;;5063454;28;20131;-59
2022/11/16 06:01:42;;;;;;;19.23;16.52;;;10.50;99.90;;;;;;5053334;28;20129;-60
2022/11/16 06:04:08;;;;;;;16.98;15.27;;;10.60;99.90;;;;;;5054743;28;20495;-60
2022/11/16 06:06:34;;;;;;;17.17;15.38;;;10.50;99.90;;;;;;5056843;28;20624;-60
2022/11/16 06:09:00;;;;;;;17.67;15.88;;;10.60;99.90;;;;;;5055579;28;20048;-60
2022/11/16 06:11:25;;;;;;;17.48;15.68;;;10.60;99.90;;;;;;5056716;28;20123;-61
2022/11/16 06:13:52;;;;;;;18.58;16.63;;;10.50;99.90;;;;;;5055104;28;20064;-61
2022/11/16 06:16:18;;;;;;;17.98;15.63;;;10.60;99.90;;;;;;5053600;28;20128;-60
2022/11/16 06:18:45;;;;;;;21.08;16.58;;;10.60;99.90;;;;;;5054574;28;20048;-58
2022/11/16 06:21:12;;;;;;;19.03;17.03;;;10.60;99.90;;;;;;5047937;28;20399;-58
2022/11/16 06:23:38;;;;;;;21.42;17.23;;;10.60;99.90;;;;;;5048770;28;20334;-60
2022/11/16 06:26:04;;;;;;;26.63;17.33;;;10.60;99.90;;;;;;5053969;28;20076;-59
2022/11/16 06:28:30;;;;;;;21.73;17.42;;;10.60;99.90;;;;;;5055623;28;20090;-58
2022/11/16 06:30:55;;;;;;;21.40;18.15;;;10.60;99.90;;;;;;5058187;28;20033;-59
2022/11/16 06:33:21;;;;;;;18.70;16.65;;;10.70;99.90;;;;;;5055856;28;20102;-59
2022/11/16 06:35:47;;;;;;;19.00;16.98;;;10.60;99.90;;;;;;5039648;28;20131;-61
2022/11/16 06:38:17;;;;;;;18.50;16.35;;;10.70;99.90;;;;;;5040018;28;20048;-60
2022/11/16 06:40:44;;;;;;;18.88;16.95;;;10.60;99.90;;;;;;5060757;28;20111;-60
2022/11/16 06:43:10;;;;;;;19.20;16.85;;;10.60;99.90;;;;;;5055200;28;20755;-59
2022/11/16 06:45:36;;;;;;;20.38;16.38;;;10.70;99.90;;;;;;5021828;28;21363;-61
2022/11/16 06:48:02;;;;;;;17.92;16.13;;;10.70;99.90;;;;;;5046364;28;20041;-60
2022/11/16 06:50:28;;;;;;;17.05;15.30;;;10.70;99.90;;;;;;5049146;28;20041;-60
2022/11/16 06:52:53;;;;;;;18.20;16.30;;;10.70;99.90;;;;;;5028893;28;20098;-60
2022/11/16 06:55:19;;;;;;;16.25;14.65;;;10.70;99.90;;;;;;5053102;28;20433;-61
2022/11/16 06:57:45;;;;;;;17.67;15.68;;;10.70;99.90;;;;;;5045438;28;20134;-60
2022/11/16 07:00:11;;;;;;;17.83;16.00;;;10.70;99.90;;;;;;5051595;28;20039;-61
2022/11/16 07:02:38;;;;;;;16.15;14.45;;;10.70;99.90;;;;;;5035096;28;20041;-61
2022/11/16 07:05:05;;;;;;;16.02;14.43;;;10.70;99.90;;;;;;5058338;28;20504;-62
2022/11/16 07:07:31;;;;;;;15.70;14.00;;;10.70;99.90;;;;;;5050237;28;20131;-61
2022/11/16 07:09:57;;;;;;;16.98;14.05;;;10.70;99.90;;;;;;5054399;28;20055;-62
2022/11/16 07:12:22;;;;;;;16.27;14.57;;;10.70;99.90;;;;;;5055660;28;20472;-60
2022/11/16 07:14:48;;;;;;;16.50;14.80;;;10.70;99.90;;;;;;5055075;28;20033;-61
2022/11/16 07:17:14;;;;;;;17.52;15.73;;;10.70;99.90;;;;;;5053004;28;20436;-61
2022/11/16 07:19:39;;;;;;;16.30;14.63;;;10.70;99.90;;;;;;5057673;28;20111;-60
2022/11/16 07:22:05;;;;;;;17.02;15.38;;;10.80;99.90;;;;;;5051868;28;20044;-61
2022/11/16 07:24:32;;;;;;;18.60;16.13;;;10.80;99.90;;;;;;5049588;28;20462;-60
2022/11/16 07:26:57;;;;;;;18.80;16.58;;;10.80;99.90;;;;;;5054323;28;20044;-61
2022/11/16 07:29:23;;;;;;;17.98;16.08;;;10.90;99.90;;;;;;5058691;28;20041;-60
2022/11/16 07:31:49;;;;;;;17.75;15.95;;;10.90;99.90;;;;;;5055203;28;20075;-61
2022/11/16 07:34:15;;;;;;;17.02;15.25;;;10.90;99.90;;;;;;5061728;28;21588;-60
2022/11/16 07:36:41;;;;;;;16.33;14.73;;;10.80;99.90;;;;;;5050577;28;20079;-59
2022/11/16 07:39:09;;;;;;;17.17;15.48;;;10.90;99.90;;;;;;5059777;28;20139;-59
2022/11/16 07:41:35;;;;;;;16.35;14.57;;;10.80;99.90;;;;;;5054706;28;20072;-57
2022/11/16 07:44:01;;;;;;;16.58;14.80;;;10.80;99.90;;;;;;5046668;28;20106;-60
2022/11/16 07:46:27;;;;;;;18.23;16.33;;;10.80;99.90;;;;;;5055310;28;20040;-60
2022/11/16 07:48:52;;;;;;;17.33;15.63;;;10.90;99.90;;;;;;5041957;28;20033;-58
2022/11/16 07:51:19;;;;;;;16.98;15.30;;;10.90;99.90;;;;;;5035847;28;20441;-58
2022/11/16 07:53:45;;;;;;;17.92;15.30;;;10.80;99.90;;;;;;5050761;28;21479;-59
2022/11/16 07:56:11;;;;;;;19.67;17.67;;;10.90;99.90;;;;;;5053944;28;20037;-59
2022/11/16 07:58:38;;;;;;;19.65;16.73;;;10.90;99.90;;;;;;5052719;28;20033;-57
2022/11/16 08:01:12;;;;;;;18.13;16.33;;;10.90;99.90;;;;;;5053049;28;20433;-59
2022/11/16 08:03:39;;;;;;;19.13;17.23;;;10.90;99.90;;;;;;5044153;28;20045;-61
2022/11/16 08:06:07;;;;;;;19.20;17.30;;;10.90;99.90;;;;;;5046993;28;20047;-59
2022/11/16 08:08:32;;;;;;;;;;;10.90;99.90;;;;;;5055649;28;20511;-61
2022/11/16 08:10:59;;;;;;;17.05;15.35;;;10.90;99.90;;;;;;5052063;28;19960;-59
2022/11/16 08:13:25;;;;;;;17.55;15.75;;;10.80;99.90;;;;;;5057378;28;20637;-60
2022/11/16 08:15:51;;;;;;;18.05;16.35;;;10.90;99.90;;;;;;5035090;28;20048;-58
2022/11/16 08:18:18;;;;;;;17.33;15.57;;;10.80;99.90;;;;;;5046884;28;20480;-58
2022/11/16 08:20:44;;;;;;;19.65;17.65;;;10.90;99.90;;;;;;5048322;28;20036;-61
2022/11/16 08:23:09;;;;;;;20.85;17.50;;;10.90;99.90;;;;;;5047765;28;20051;-61
2022/11/16 08:25:35;;;;;;;18.90;17.13;;;10.90;99.90;;;;;;5048036;28;20044;-58
2022/11/16 08:28:00;;;;;;;21.48;18.98;;;10.90;99.90;;;;;;5047071;28;20434;-60
2022/11/16 08:30:26;;;;;;;21.48;17.70;;;10.90;99.90;;;;;;5046269;28;20500;-62
2022/11/16 08:32:52;;;;;;;19.13;17.13;;;11.00;99.90;;;;;;5048859;28;21729;-58
2022/11/16 08:35:17;;;;;;;17.67;15.93;;;11.10;99.90;;;;;;5045965;28;20471;-59
2022/11/16 08:37:43;;;;;;;19.33;17.25;;;11.10;99.90;;;;;;5025969;28;20059;-60
2022/11/16 08:40:09;;;;;;;18.95;16.95;;;11.10;99.90;;;;;;5053851;28;20049;-58
2022/11/16 08:42:35;;;;;;;20.42;18.10;;;11.10;99.90;;;;;;5060649;28;20555;-59
2022/11/16 08:45:00;;;;;;;19.10;17.20;;;11.10;99.90;;;;;;5050847;28;20044;-58
2022/11/16 08:47:26;;;;;;;20.13;18.13;;;11.20;99.90;;;;;;5061931;28;20406;-59
2022/11/16 08:49:51;;;;;;;19.73;17.63;;;11.20;99.90;;;;;;5049115;28;20048;-60
2022/11/16 08:52:17;;;;;;;19.15;17.33;;;11.30;99.90;;;;;;5052031;28;20502;-61
2022/11/16 08:54:43;;;;;;;19.15;16.25;;;11.30;99.90;;;;;;5054106;28;20053;-61
2022/11/16 08:57:08;;;;;;;20.05;17.42;;;11.40;99.90;;;;;;5068111;28;20056;-60
2022/11/16 08:59:34;;;;;;;18.60;16.65;;;11.40;99.90;;;;;;5049759;28;20433;-61
2022/11/16 09:01:59;;;;;;;16.42;14.90;;;11.50;99.90;;;;;;5057969;28;20552;-58
2022/11/16 09:04:25;;;;;;;17.40;15.60;;;11.40;99.90;;;;;;5066161;28;20083;-61
2022/11/16 09:06:51;;;;;;;16.75;13.73;;;11.40;99.90;;;;;;5051531;28;20602;-62
2022/11/16 09:09:17;;;;;;;15.77;14.18;;;11.50;99.90;;;;;;5053390;28;20049;-59
2022/11/16 09:11:43;;;;;;;16.85;15.05;;;11.50;99.90;;;;;;5050622;28;20163;-59
2022/11/16 09:14:09;;;;;;;16.10;14.40;;;11.50;99.90;;;;;;5050095;28;20139;-61
2022/11/16 09:16:34;;;;;;;16.33;14.60;;;11.60;99.90;;;;;;5052428;28;20072;-62
2022/11/16 09:19:00;;;;;;;16.98;13.27;;;11.60;99.90;;;;;;5053618;28;20044;-59
2022/11/16 09:21:29;;;;;;;18.85;13.80;;;11.70;99.90;;;;;;5038617;28;20123;-61
2022/11/16 09:23:56;;;;;;;14.98;12.68;;;;;;;;;;5052774;28;20041;-59
2022/11/16 09:26:22;;;;;;;13.35;11.52;;;11.70;99.90;;;;;;5048257;28;20083;-60
2022/11/16 09:28:56;;;;;;;12.45;11.18;;;11.80;99.90;;;;;;5053817;28;20045;-61
2022/11/16 09:31:23;;;;;;;15.50;11.43;;;12.00;99.90;;;;;;5047882;28;20083;-60
2022/11/16 09:33:49;;;;;;;11.93;10.68;;;12.20;99.90;;;;;;5049493;28;20041;-62
2022/11/16 09:36:15;;;;;;;11.65;10.45;;;12.20;99.90;;;;;;5051247;28;20666;-60
2022/11/16 09:38:43;;;;;;;16.10;11.07;;;12.30;99.90;;;;;;5068775;28;20048;-60
2022/11/16 09:41:32;;;;;;;15.10;10.25;;;12.40;99.90;;;;;;5068393;28;20414;-60
2022/11/16 09:44:08;;;;;;;12.43;10.02;;;12.40;99.90;;;;;;5067095;28;20047;-58
2022/11/16 09:46:39;;;;;;;13.40;9.88;;;12.50;99.90;;;;;;5061046;28;20040;-59
2022/11/16 09:49:18;;;;;;;15.73;9.48;;;12.40;99.90;;;;;;5065138;28;20120;-58
2022/11/16 09:51:49;;;;;;;10.25;7.55;;;12.40;99.90;;;;;;5048492;28;20175;-61
2022/11/16 09:54:20;;;;;;;11.00;7.00;;;12.30;99.90;;;;;;5056159;28;20045;-60
2022/11/16 09:56:50;;;;;;;11.13;7.72;;;12.20;99.90;;;;;;5058122;28;20041;-61
2022/11/16 09:59:24;;;;;;;11.80;7.78;;;12.30;99.90;;;;;;5065666;28;20119;-61
2022/11/16 10:01:56;;;;;;;10.05;6.80;;;12.40;99.90;;;;;;5055324;28;20052;-59
2022/11/16 10:04:35;;;;;;;8.57;6.55;;;12.40;99.90;;;;;;5073626;28;20494;-60
2022/11/16 10:07:11;;;;;;;7.88;5.43;;;12.50;99.90;;;;;;5067718;28;20482;-61
2022/11/16 10:09:37;;;;;;;8.43;5.68;;;12.50;99.90;;;;;;5060040;28;20056;-59
2022/11/16 10:12:30;;;;;;;10.48;5.57;;;12.50;99.90;;;;;;5058866;28;20037;-61
2022/11/16 10:15:03;;;;;;;8.43;5.25;;;12.40;99.90;;;;;;5059102;28;20122;-60
2022/11/16 10:17:46;;;;;;;12.70;4.72;;;12.20;99.90;;;;;;5057880;28;20037;-60
2022/11/16 10:20:44;;;;;;;8.95;4.43;;;12.10;99.90;;;;;;5055267;28;20048;-61
2022/11/16 10:24:04;;;;;;;13.80;6.70;;;12.20;99.90;;;;;;5048823;28;20052;-60
2022/11/16 10:27:13;;;;;;;8.68;5.65;;;12.40;99.90;;;;;;4956025;28;20134;-60
2022/11/16 10:30:04;;;;;;;11.13;5.22;;;12.70;99.90;;;;;;4958963;28;20057;-60
2022/11/16 10:32:33;;;;;;;12.23;5.65;;;12.70;99.90;;;;;;4961484;28;20042;-60
2022/11/16 10:35:10;;;;;;;8.80;5.10;;;12.60;99.90;;;;;;4974009;28;20198;-61
2022/11/16 10:37:40;;;;;;;9.23;5.00;;;12.50;99.90;;;;;;4955838;28;20066;-60
2022/11/16 10:40:38;;;;;;;10.00;5.38;;;12.50;99.90;;;;;;4954621;28;20128;-59
2022/11/16 10:43:17;;;;;;;7.82;4.50;;;12.30;99.90;;;;;;4956726;28;20051;-60
2022/11/16 10:46:13;;;;;;;8.52;4.00;;;12.30;99.90;;;;;;4957181;28;20082;-61
2022/11/16 10:49:07;;;;;;;11.32;4.82;;;12.30;99.90;;;;;;4951546;28;20054;-60
2022/11/16 10:51:33;;;;;;;10.40;4.47;;;12.20;99.90;;;;;;4968863;28;20905;-61
2022/11/16 10:53:59;;;;;;;7.50;4.35;;;12.10;99.90;;;;;;4966491;28;20563;-61
2022/11/16 10:56:33;;;;;;;10.63;4.72;;;12.00;99.90;;;;;;4946992;29;20110;-60
2022/11/16 10:58:59;;;;;;;9.35;4.80;;;12.00;99.90;;;;;;4962840;28;20126;-60
2022/11/16 11:01:38;;;;;;;8.25;4.25;;;12.00;99.90;;;;;;5043310;28;20053;-60
2022/11/16 11:04:17;;;;;;;7.20;4.07;;;12.10;99.90;;;;;;5057023;28;20048;-60
2022/11/16 11:06:44;;;;;;;8.38;3.92;;;12.30;99.90;;;;;;5054579;28;20045;-60
2022/11/16 11:09:30;;;;;;;10.85;3.58;;;12.40;99.90;;;;;;5054532;28;20049;-61
2022/11/16 11:12:38;;;;;;;12.13;3.13;;;12.50;99.90;;;;;;5059351;28;20045;-60
2022/11/16 11:15:10;;;;;;;11.98;3.00;;;12.50;99.90;;;;;;5062331;28;20059;-59
2022/11/16 11:17:38;;;;;;;8.75;2.80;;;12.40;99.90;;;;;;5060078;28;20041;-59
2022/11/16 11:20:04;;;;;;;;;;;12.50;99.90;;;;;;5070645;28;20120;-60
2022/11/16 11:22:31;;;;;;;9.15;2.90;;;12.60;99.90;;;;;;5054566;28;20009;-58
2022/11/16 11:25:00;;;;;;;8.65;3.20;;;12.70;99.90;;;;;;5053732;28;20041;-55
2022/11/16 11:27:32;;;;;;;9.63;2.85;;;12.90;99.90;;;;;;5064521;28;20537;-59
2022/11/16 11:29:59;;;;;;;9.38;2.90;;;12.80;99.90;;;;;;5074286;28;20040;-58
2022/11/16 11:32:38;;;;;;;10.27;2.90;;;12.80;99.90;;;;;;5067970;28;20041;-59
2022/11/16 11:35:05;;;;;;;9.25;3.10;;;12.90;99.90;;;;;;5061712;28;20043;-59
2022/11/16 11:37:36;;;;;;;13.00;3.72;;;12.90;99.90;;;;;;5053583;28;20061;-57
2022/11/16 11:40:13;;;;;;;9.70;2.95;;;12.90;99.90;;;;;;5056554;28;20062;-60
2022/11/16 11:42:41;;;;;;;11.13;3.05;;;13.00;99.90;;;;;;5053922;28;20044;-59
2022/11/16 11:45:07;;;;;;;;;;;12.90;99.90;;;;;;5058175;28;20040;-57
2022/11/16 11:47:54;;;;;;;9.57;3.25;;;13.00;99.90;;;;;;5065668;28;19921;-58
2022/11/16 11:50:48;;;;;;;12.50;3.33;;;13.00;99.90;;;;;;5057999;28;20045;-58
2022/11/16 11:53:56;;;;;;;7.43;2.92;;;12.90;99.90;;;;;;5059957;28;20055;-54
2022/11/16 11:56:22;;;;;;;8.02;2.92;;;12.90;99.90;;;;;;5005377;28;20061;-58
2022/11/16 11:58:49;;;;;;;9.05;3.20;;;13.00;99.90;;;;;;5007749;28;20050;-57
2022/11/16 12:01:33;;;;;;;12.63;3.50;;;13.10;99.90;;;;;;4990452;28;20046;-57
2022/11/16 12:04:21;;;;;;;8.60;3.05;;;13.20;99.90;;;;;;5001152;28;20062;-54
2022/11/16 12:07:04;;;;;;;13.95;3.55;;;13.10;99.90;;;;;;4976706;28;20108;-58
2022/11/16 12:10:16;;;;;;;8.13;2.90;;;12.90;99.90;;;;;;5002897;28;20486;-57
2022/11/16 12:12:57;;;;;;;10.50;3.53;;;12.90;99.90;;;;;;4983990;28;20508;-57
2022/11/16 12:15:31;;;;;;;9.98;3.03;;;12.70;99.90;;;;;;4976394;28;20041;-58
2022/11/16 12:18:30;;;;;;;10.02;3.25;;;12.80;99.90;;;;;;5003066;28;20700;-56
2022/11/16 12:21:12;;;;;;;8.70;2.70;;;12.80;99.90;;;;;;5004875;28;20507;-57
2022/11/16 12:23:49;;;;;;;10.77;2.92;;;12.80;99.90;;;;;;4999819;28;20085;-55
2022/11/16 12:26:30;;;;;;;7.32;2.90;;;12.80;99.90;;;;;;4981626;28;20053;-54
2022/11/16 12:29:30;;;;;;;9.27;2.90;;;13.00;99.90;;;;;;4996646;28;20038;-54
2022/11/16 12:32:06;;;;;;;11.75;2.97;;;12.90;99.90;;;;;;5052250;28;20049;-58
2022/11/16 12:34:37;;;;;;;14.05;3.35;;;13.00;99.90;;;;;;5057737;28;20044;-58
2022/11/16 12:37:48;;;;;;;7.03;3.00;;;13.00;99.90;;;;;;5057287;28;20048;-57
2022/11/16 12:40:26;;;;;;;10.52;2.72;;;13.00;99.90;;;;;;5047740;28;20055;-58
2022/11/16 12:43:09;;;;;;;9.85;2.65;;;12.90;99.90;;;;;;4691631;22;20144;-58
2022/11/16 12:45:47;;;;;;;8.75;2.90;;;12.90;99.90;;;;;;5062864;28;20083;-56
2022/11/16 12:48:41;;;;;;;9.32;2.40;;;12.80;99.90;;;;;;5062400;28;20036;-56
2022/11/16 12:51:47;;;;;;;9.80;2.92;;;12.80;99.90;;;;;;5069041;28;20161;-58
2022/11/16 12:54:41;;;;;;;7.18;2.88;;;12.90;99.90;;;;;;5063619;28;20048;-59
2022/11/16 12:57:26;;;;;;;7.97;2.55;;;12.80;99.90;;;;;;4950787;28;20051;-57
2022/11/16 13:00:28;;;;;;;14.90;3.15;;;12.80;99.90;;;;;;4947231;28;20433;-55
2022/11/16 13:02:58;;;;;;;12.63;2.90;;;12.80;99.90;;;;;;4897688;29;20117;-56
2022/11/16 13:05:42;;;;;;;9.63;2.40;;;12.70;99.90;;;;;;4911904;29;20056;-56
2022/11/16 13:08:22;;;;;;;8.63;2.72;;;12.70;99.90;;;;;;4913911;29;20056;-56
2022/11/16 13:11:00;;;;;;;10.80;2.42;;;12.70;99.90;;;;;;4911169;29;20059;-56
2022/11/16 13:13:30;;;;;;;10.65;2.38;;;12.70;99.90;;;;;;4914346;29;20056;-55
2022/11/16 13:15:58;;;;;;;8.18;2.55;;;12.60;99.90;;;;;;4910798;29;20052;-55
2022/11/16 13:18:24;;;;;;;;;;;12.60;99.90;;;;;;4914545;29;20377;-55
2022/11/16 13:21:06;;;;;;;11.02;2.35;;;12.60;99.90;;;;;;4911547;29;20027;-58
2022/11/16 13:24:05;;;;;;;11.35;2.55;;;12.70;99.90;;;;;;4914072;29;20062;-57
2022/11/16 13:27:07;;;;;;;13.13;2.75;;;12.70;99.90;;;;;;4913219;29;20044;-55
2022/11/16 13:29:58;;;;;;;9.55;2.35;;;12.70;99.90;;;;;;4848781;29;20106;-57
2022/11/16 13:33:03;;;;;;;11.18;2.83;;;12.80;99.90;;;;;;4858342;29;20041;-57
2022/11/16 13:35:29;;;;;;;11.43;2.55;;;12.70;99.90;;;;;;4912889;29;20052;-54
2022/11/16 13:37:54;;;;;;;8.30;2.00;;;12.60;99.90;;;;;;4968156;28;20047;-58
2022/11/16 13:40:23;;;;;;;9.88;2.55;;;12.70;99.90;;;;;;4973503;28;20133;-57
2022/11/16 13:43:04;;;;;;;15.90;2.67;;;12.70;99.90;;;;;;4968788;28;20086;-57
2022/11/16 13:45:42;;;;;;;13.32;2.47;;;12.70;99.90;;;;;;4970586;28;21664;-58